MSC Maeva — H9TF — position and weather

sailwx.info

Track history (hours):
 
Tides and Currents Weather Stations Pressure Air Temp Water Temp Dewpoint Dewpoint Depression Visibility Wind Speed Wind Dir Waves Ship Positions

MSC Maeva

Last reported at 2018-Apr-17 05:39 UTC. Time now 2018-Apr-24 05:03 UTC.
Position N 31°04' E 032°19'.

Type: Ship (hazmat cat A). MMSI: 371851000.

Date/timePositionNaut miles runAvg speedWind from/ knotsBaromVisibWave heightAir tempDewpointWater temp
2018-Apr-17 05:39N 31°04' E 032°19'4 8.0
2018-Apr-17 05:11N 31°08' E 032°19'19 8.1
2018-Apr-17 02:51N 31°26' E 032°24'5 1.7
2018-Apr-16 23:42N 31°28' E 032°18'0 0.0
2018-Apr-16 23:30N 31°28' E 032°18'0 0.0
2018-Apr-16 20:45N 31°28' E 032°18'0 0.1
2018-Apr-16 20:30N 31°28' E 032°18'0 0.1
2018-Apr-16 20:00N 31°28' E 032°18'7 6.3
2018-Apr-16 18:52N 31°33' E 032°11'3 9.2
2018-Apr-16 18:30N 31°35' E 032°09'612.1
2018-Apr-16 17:59N 31°39' E 032°04'816.0
2018-Apr-16 17:30N 31°45' E 031°57'815.8
2018-Apr-16 17:00N 31°47' E 031°48'816.3
2018-Apr-16 16:30N 31°50' E 031°39'2016.4
2018-Apr-16 15:16N 31°56' E 031°17'86217.6
2018-Apr-14 14:18N 36°11' E 014°43'619.1
2018-Apr-14 14:00N 36°13' E 014°36'715.2
2018-Apr-14 13:30N 36°15' E 014°27'1119.2
2018-Apr-14 12:57N 36°19' E 014°15'613.6
2018-Apr-14 12:30N 36°21' E 014°08'916.9
2018-Apr-14 11:58N 36°25' E 013°57'817.7
2018-Apr-14 11:29N 36°28' E 013°47'815.8
2018-Apr-14 10:58N 36°31' E 013°38'817.0
2018-Apr-14 10:30N 36°33' E 013°28'1119.3
2018-Apr-14 09:57N 36°37' E 013°16'715.5
2018-Apr-14 09:30N 36°39' E 013°08'917.7
2018-Apr-14 09:00N 36°43' E 012°58'1018.1
2018-Apr-14 08:27N 36°46' E 012°46'817.1
2018-Apr-14 08:00N 36°49' E 012°37'52117.3
2018-Apr-13 01:51N 43°15' E 004°60'615.9
2018-Apr-13 01:30N 43°20' E 004°58'4 7.5
2018-Apr-13 01:00N 43°24' E 004°55'4 7.5
2018-Apr-13 00:30N 43°25' E 004°50'0 0.7
2018-Apr-13 00:00N 43°25' E 004°50'0 0.0
2018-Apr-12 23:27N 43°25' E 004°50'0 0.0
2018-Apr-12 22:57N 43°25' E 004°50'0 0.0
2018-Apr-12 22:30N 43°25' E 004°50'0 0.0
2018-Apr-12 21:57N 43°25' E 004°50'0 0.0
2018-Apr-12 21:24N 43°25' E 004°50'0 0.0
2018-Apr-12 21:00N 43°25' E 004°50'0 0.0
2018-Apr-12 20:30N 43°25' E 004°50'0 0.0
2018-Apr-12 20:00N 43°25' E 004°50'0 0.0
2018-Apr-12 19:27N 43°25' E 004°50'0 0.0
2018-Apr-12 19:00N 43°25' E 004°50'0 0.0
2018-Apr-12 18:30N 43°25' E 004°50'0 0.0
2018-Apr-12 17:54N 43°25' E 004°50'0 0.0
2018-Apr-12 17:24N 43°25' E 004°50'0 0.0
2018-Apr-12 17:00N 43°25' E 004°50'0 0.0
2018-Apr-12 16:30N 43°25' E 004°50'0 0.0
2018-Apr-12 16:00N 43°25' E 004°50'0 0.0
2018-Apr-12 15:24N 43°25' E 004°50'0 0.0
2018-Apr-12 15:00N 43°25' E 004°50'0 0.0
2018-Apr-12 14:30N 43°25' E 004°50'0 0.0
2018-Apr-12 14:00N 43°25' E 004°50'0 0.0
2018-Apr-12 13:30N 43°25' E 004°50'0 0.0
2018-Apr-12 13:00N 43°25' E 004°50'0 0.0
2018-Apr-12 12:21N 43°25' E 004°50'0 0.0
2018-Apr-12 11:54N 43°25' E 004°50'0 0.0
2018-Apr-12 11:30N 43°25' E 004°50'0 0.0
2018-Apr-12 10:54N 43°25' E 004°50'0 0.0
2018-Apr-12 10:30N 43°25' E 004°50'0 0.0
2018-Apr-12 09:45N 43°25' E 004°50'0 0.0
2018-Apr-12 09:27N 43°25' E 004°50'0 0.0
2018-Apr-12 08:57N 43°25' E 004°50'0 0.0
2018-Apr-12 08:24N 43°25' E 004°50'0 0.0
2018-Apr-12 07:49N 43°25' E 004°50'0 0.4
2018-Apr-12 07:31N 43°25' E 004°50'1 2.7
2018-Apr-12 07:00N 43°24' E 004°52'5 9.8
2018-Apr-12 06:30N 43°22' E 004°58'3 6.9
2018-Apr-12 06:00N 43°19' E 004°59'2 4.9
2018-Apr-12 05:30N 43°17' E 005°00'4 7.1
2018-Apr-12 05:00N 43°13' E 005°02'5 6.6
2018-Apr-12 04:14N 43°08' E 005°01'2 6.9
2018-Apr-12 04:00N 43°07' E 005°00'404 9.5
2018-Apr-10 09:23N 37°45' W 000°20'719.3
2018-Apr-10 09:00N 37°39' W 000°25'1018.9
2018-Apr-10 08:28N 37°31' W 000°34'919.0
2018-Apr-10 08:00N 37°25' W 000°42'1019.2
2018-Apr-10 07:30N 37°19' W 000°51'1019.1
2018-Apr-10 07:00N 37°12' W 000°59'1018.8
2018-Apr-10 06:28N 37°05' W 001°09'20718.3
2018-Apr-09 19:10N 35°59' W 005°14'320.3
2018-Apr-09 19:00N 35°59' W 005°17'26616.1
2018-Apr-09 02:29N 38°20' W 010°01'1120.8
2018-Apr-09 01:59N 38°30' W 010°04'1020.8
2018-Apr-09 01:30N 38°40' W 010°06'1021.0
2018-Apr-09 01:00N 38°50' W 010°06'1221.0
2018-Apr-09 00:27N 39°02' W 010°08'1020.6
2018-Apr-08 23:58N 39°12' W 010°08'1120.8
2018-Apr-08 23:28N 39°22' W 010°07'68319.4
2018-Apr-07 12:21N 49°45' W 003°34'719.2
2018-Apr-07 12:01N 49°48' W 003°25'1019.2
2018-Apr-07 11:30N 49°53' W 003°12'918.9
2018-Apr-07 11:00N 49°57' W 002°59'918.7
2018-Apr-07 10:30N 50°01' W 002°46'1018.9
2018-Apr-07 10:00N 50°03' W 002°31'2419.4
2018-Apr-07 08:47N 50°00' W 001°54'620.8
2018-Apr-07 08:30N 49°59' W 001°46'1121.4
2018-Apr-07 08:01N 49°56' W 001°30'1122.4
2018-Apr-07 07:31N 49°52' W 001°14'1122.7
2018-Apr-07 07:00N 49°48' W 000°57'1122.2
2018-Apr-07 06:30N 49°43' W 000°42'1122.2
2018-Apr-07 06:00N 49°37' W 000°27'  
Track history (hours):
 
Tides and Currents Weather Stations Pressure Air Temp Water Temp Dewpoint Dewpoint Depression Visibility Wind Speed Wind Dir Waves Ship Positions

MSC Maeva

Last reported at 2018-Apr-17 05:39 UTC. Time now 2018-Apr-24 05:03 UTC.
Position N 31°04' E 032°19'.

Type: Ship (hazmat cat A). MMSI: 371851000.

Date/timePositionNaut miles runAvg speedWind from/ knotsBaromVisibWave heightAir tempDewpointWater temp
2018-Apr-17 05:39N 31°04' E 032°19'4 8.0
2018-Apr-17 05:11N 31°08' E 032°19'19 8.1
2018-Apr-17 02:51N 31°26' E 032°24'5 1.7
2018-Apr-16 23:42N 31°28' E 032°18'0 0.0
2018-Apr-16 23:30N 31°28' E 032°18'0 0.0
2018-Apr-16 20:45N 31°28' E 032°18'0 0.1
2018-Apr-16 20:30N 31°28' E 032°18'0 0.1
2018-Apr-16 20:00N 31°28' E 032°18'7 6.3
2018-Apr-16 18:52N 31°33' E 032°11'3 9.2
2018-Apr-16 18:30N 31°35' E 032°09'612.1
2018-Apr-16 17:59N 31°39' E 032°04'816.0
2018-Apr-16 17:30N 31°45' E 031°57'815.8
2018-Apr-16 17:00N 31°47' E 031°48'816.3
2018-Apr-16 16:30N 31°50' E 031°39'2016.4
2018-Apr-16 15:16N 31°56' E 031°17'86217.6
2018-Apr-14 14:18N 36°11' E 014°43'619.1
2018-Apr-14 14:00N 36°13' E 014°36'715.2
2018-Apr-14 13:30N 36°15' E 014°27'1119.2
2018-Apr-14 12:57N 36°19' E 014°15'613.6
2018-Apr-14 12:30N 36°21' E 014°08'916.9
2018-Apr-14 11:58N 36°25' E 013°57'817.7
2018-Apr-14 11:29N 36°28' E 013°47'815.8
2018-Apr-14 10:58N 36°31' E 013°38'817.0
2018-Apr-14 10:30N 36°33' E 013°28'1119.3
2018-Apr-14 09:57N 36°37' E 013°16'715.5
2018-Apr-14 09:30N 36°39' E 013°08'917.7
2018-Apr-14 09:00N 36°43' E 012°58'1018.1
2018-Apr-14 08:27N 36°46' E 012°46'817.1
2018-Apr-14 08:00N 36°49' E 012°37'52117.3
2018-Apr-13 01:51N 43°15' E 004°60'615.9
2018-Apr-13 01:30N 43°20' E 004°58'4 7.5
2018-Apr-13 01:00N 43°24' E 004°55'4 7.5
2018-Apr-13 00:30N 43°25' E 004°50'0 0.7
2018-Apr-13 00:00N 43°25' E 004°50'0 0.0
2018-Apr-12 23:27N 43°25' E 004°50'0 0.0
2018-Apr-12 22:57N 43°25' E 004°50'0 0.0
2018-Apr-12 22:30N 43°25' E 004°50'0 0.0
2018-Apr-12 21:57N 43°25' E 004°50'0 0.0
2018-Apr-12 21:24N 43°25' E 004°50'0 0.0
2018-Apr-12 21:00N 43°25' E 004°50'0 0.0
2018-Apr-12 20:30N 43°25' E 004°50'0 0.0
2018-Apr-12 20:00N 43°25' E 004°50'0 0.0
2018-Apr-12 19:27N 43°25' E 004°50'0 0.0
2018-Apr-12 19:00N 43°25' E 004°50'0 0.0
2018-Apr-12 18:30N 43°25' E 004°50'0 0.0
2018-Apr-12 17:54N 43°25' E 004°50'0 0.0
2018-Apr-12 17:24N 43°25' E 004°50'0 0.0
2018-Apr-12 17:00N 43°25' E 004°50'0 0.0
2018-Apr-12 16:30N 43°25' E 004°50'0 0.0
2018-Apr-12 16:00N 43°25' E 004°50'0 0.0
2018-Apr-12 15:24N 43°25' E 004°50'0 0.0
2018-Apr-12 15:00N 43°25' E 004°50'0 0.0
2018-Apr-12 14:30N 43°25' E 004°50'0 0.0
2018-Apr-12 14:00N 43°25' E 004°50'0 0.0
2018-Apr-12 13:30N 43°25' E 004°50'0 0.0
2018-Apr-12 13:00N 43°25' E 004°50'0 0.0
2018-Apr-12 12:21N 43°25' E 004°50'0 0.0
2018-Apr-12 11:54N 43°25' E 004°50'0 0.0
2018-Apr-12 11:30N 43°25' E 004°50'0 0.0
2018-Apr-12 10:54N 43°25' E 004°50'0 0.0
2018-Apr-12 10:30N 43°25' E 004°50'0 0.0
2018-Apr-12 09:45N 43°25' E 004°50'0 0.0
2018-Apr-12 09:27N 43°25' E 004°50'0 0.0
2018-Apr-12 08:57N 43°25' E 004°50'0 0.0
2018-Apr-12 08:24N 43°25' E 004°50'0 0.0
2018-Apr-12 07:49N 43°25' E 004°50'0 0.4
2018-Apr-12 07:31N 43°25' E 004°50'1 2.7
2018-Apr-12 07:00N 43°24' E 004°52'5 9.8
2018-Apr-12 06:30N 43°22' E 004°58'3 6.9
2018-Apr-12 06:00N 43°19' E 004°59'2 4.9
2018-Apr-12 05:30N 43°17' E 005°00'4 7.1
2018-Apr-12 05:00N 43°13' E 005°02'5 6.6
2018-Apr-12 04:14N 43°08' E 005°01'2 6.9
2018-Apr-12 04:00N 43°07' E 005°00'404 9.5
2018-Apr-10 09:23N 37°45' W 000°20'719.3
2018-Apr-10 09:00N 37°39' W 000°25'1018.9
2018-Apr-10 08:28N 37°31' W 000°34'919.0
2018-Apr-10 08:00N 37°25' W 000°42'1019.2
2018-Apr-10 07:30N 37°19' W 000°51'1019.1
2018-Apr-10 07:00N 37°12' W 000°59'1018.8
2018-Apr-10 06:28N 37°05' W 001°09'20718.3
2018-Apr-09 19:10N 35°59' W 005°14'320.3
2018-Apr-09 19:00N 35°59' W 005°17'26616.1
2018-Apr-09 02:29N 38°20' W 010°01'1120.8
2018-Apr-09 01:59N 38°30' W 010°04'1020.8
2018-Apr-09 01:30N 38°40' W 010°06'1021.0
2018-Apr-09 01:00N 38°50' W 010°06'1221.0
2018-Apr-09 00:27N 39°02' W 010°08'1020.6
2018-Apr-08 23:58N 39°12' W 010°08'1120.8
2018-Apr-08 23:28N 39°22' W 010°07'68319.4
2018-Apr-07 12:21N 49°45' W 003°34'719.2
2018-Apr-07 12:01N 49°48' W 003°25'1019.2
2018-Apr-07 11:30N 49°53' W 003°12'918.9
2018-Apr-07 11:00N 49°57' W 002°59'918.7
2018-Apr-07 10:30N 50°01' W 002°46'1018.9
2018-Apr-07 10:00N 50°03' W 002°31'2419.4
2018-Apr-07 08:47N 50°00' W 001°54'620.8
2018-Apr-07 08:30N 49°59' W 001°46'1121.4
2018-Apr-07 08:01N 49°56' W 001°30'1122.4
2018-Apr-07 07:31N 49°52' W 001°14'1122.7
2018-Apr-07 07:00N 49°48' W 000°57'1122.2
2018-Apr-07 06:30N 49°43' W 000°42'1122.2
2018-Apr-07 06:00N 49°37' W 000°27'  

Dump ship's entire track history